createdAt,value
2017-02-28T00:00:11.800Z,988.53
2017-02-28T00:01:11.819Z,988.52
2017-02-28T00:02:11.839Z,988.49
2017-02-28T00:03:11.863Z,988.5
2017-02-28T00:04:11.879Z,988.45
2017-02-28T00:05:11.899Z,988.43
2017-02-28T00:07:11.939Z,988.48
2017-02-28T00:08:11.959Z,988.5
2017-02-28T00:09:11.978Z,988.47
2017-02-28T00:10:11.999Z,988.45
2017-02-28T00:11:12.019Z,988.46
2017-02-28T00:12:12.038Z,988.48
2017-02-28T00:13:12.058Z,988.49
2017-02-28T00:14:12.079Z,988.46
2017-02-28T00:15:12.099Z,988.5
2017-02-28T00:16:12.118Z,988.53
2017-02-28T00:17:12.138Z,988.56
2017-02-28T00:18:12.158Z,988.59
2017-02-28T00:19:12.180Z,988.53
2017-02-28T00:20:12.199Z,988.64
2017-02-28T00:22:12.239Z,988.62
2017-02-28T00:23:12.259Z,988.62
2017-02-28T00:24:12.279Z,988.65
2017-02-28T00:25:12.302Z,988.67
2017-02-28T00:26:12.320Z,988.73
2017-02-28T00:27:12.339Z,988.73
2017-02-28T00:28:12.359Z,988.73
2017-02-28T00:29:12.379Z,988.78
2017-02-28T00:30:12.399Z,988.78
2017-02-28T00:31:12.420Z,988.78
2017-02-28T00:32:12.439Z,988.77
2017-02-28T00:33:12.459Z,988.79
2017-02-28T00:34:12.483Z,988.81
2017-02-28T00:35:12.499Z,988.78
2017-02-28T00:36:12.520Z,988.79
2017-02-28T00:37:12.540Z,988.71
2017-02-28T00:38:12.558Z,988.78
2017-02-28T00:39:12.580Z,988.77
2017-02-28T00:40:12.600Z,988.76
2017-02-28T00:41:12.619Z,988.79
2017-02-28T00:42:12.639Z,988.78
2017-02-28T00:43:12.661Z,988.78
2017-02-28T00:44:12.680Z,988.78
2017-02-28T00:45:12.700Z,988.78
2017-02-28T00:46:12.719Z,988.78
2017-02-28T00:47:12.740Z,988.82
2017-02-28T00:48:12.760Z,988.75
2017-02-28T00:49:12.779Z,988.75
2017-02-28T00:50:12.800Z,988.76
2017-02-28T00:51:12.823Z,988.8
2017-02-28T00:52:12.840Z,988.78
2017-02-28T00:54:12.881Z,988.85
2017-02-28T00:55:12.901Z,988.85
2017-02-28T00:56:12.920Z,988.86
2017-02-28T00:57:12.940Z,988.82
2017-02-28T00:58:12.960Z,988.89
2017-02-28T00:59:12.980Z,988.8
2017-02-28T01:00:12.999Z,988.76
2017-02-28T01:01:13.020Z,988.72
2017-02-28T01:02:13.041Z,988.74
2017-02-28T01:03:13.060Z,988.72
2017-02-28T01:04:13.081Z,988.7
2017-02-28T01:05:13.101Z,988.68
2017-02-28T01:06:13.121Z,988.67
2017-02-28T01:07:13.140Z,988.65
2017-02-28T01:08:13.161Z,988.67
2017-02-28T01:10:13.202Z,988.7
2017-02-28T01:11:13.221Z,988.66
2017-02-28T01:12:13.241Z,988.68
2017-02-28T01:13:13.284Z,988.73
2017-02-28T01:14:13.280Z,988.75
2017-02-28T01:15:13.302Z,988.71
2017-02-28T01:16:13.322Z,988.69
2017-02-28T01:17:13.343Z,988.61
2017-02-28T01:18:13.362Z,988.63
2017-02-28T01:19:13.382Z,988.62
2017-02-28T01:20:13.402Z,988.57
2017-02-28T01:21:13.423Z,988.65
2017-02-28T01:22:13.442Z,988.63
2017-02-28T01:23:13.463Z,988.66
2017-02-28T01:24:13.483Z,988.67
2017-02-28T01:26:13.523Z,988.66
2017-02-28T01:27:13.542Z,988.6
2017-02-28T01:28:13.563Z,988.66
2017-02-28T01:29:13.583Z,988.63
2017-02-28T01:30:13.603Z,988.55
2017-02-28T01:31:13.624Z,988.47
2017-02-28T01:32:13.645Z,988.49
2017-02-28T01:33:13.664Z,988.48
2017-02-28T01:34:13.684Z,988.49
2017-02-28T01:35:13.706Z,988.45
2017-02-28T01:36:13.724Z,988.42
2017-02-28T01:37:13.745Z,988.41
2017-02-28T01:38:13.765Z,988.39
2017-02-28T01:39:13.785Z,988.33
2017-02-28T01:40:13.805Z,988.29
2017-02-28T01:42:13.847Z,988.27
2017-02-28T01:43:13.866Z,988.26
2017-02-28T01:44:13.888Z,988.18
2017-02-28T01:45:13.907Z,988.14
2017-02-28T01:46:13.928Z,988.07
2017-02-28T01:47:13.947Z,988.08
2017-02-28T01:48:13.968Z,988.03
2017-02-28T01:49:13.988Z,987.97
2017-02-28T01:50:14.008Z,988.02
2017-02-28T01:51:14.028Z,988.01
2017-02-28T01:52:14.049Z,987.95
2017-02-28T01:53:14.070Z,987.99
2017-02-28T01:54:14.090Z,987.93
2017-02-28T01:55:14.111Z,987.86
2017-02-28T01:57:14.152Z,987.87
2017-02-28T01:58:14.172Z,987.86
2017-02-28T01:59:14.193Z,987.82
2017-02-28T02:00:14.213Z,987.78
2017-02-28T02:01:14.234Z,987.75
2017-02-28T02:02:14.254Z,987.71
2017-02-28T02:03:14.274Z,987.68
2017-02-28T02:04:14.295Z,987.68
2017-02-28T02:05:14.314Z,987.72
2017-02-28T02:06:14.335Z,987.65
2017-02-28T02:07:14.356Z,987.67
2017-02-28T02:08:14.377Z,987.6
2017-02-28T02:09:14.397Z,987.59
2017-02-28T02:10:14.417Z,987.55
2017-02-28T02:11:14.438Z,987.54
2017-02-28T02:12:14.458Z,987.5
2017-02-28T02:13:14.479Z,987.54
2017-02-28T02:14:14.499Z,987.59
2017-02-28T02:15:14.520Z,987.68
2017-02-28T02:16:14.539Z,987.73
2017-02-28T02:17:14.561Z,987.7
2017-02-28T02:18:14.581Z,987.76
2017-02-28T02:19:14.602Z,987.79
2017-02-28T02:20:14.622Z,987.81
2017-02-28T02:21:14.642Z,987.86
2017-02-28T02:22:14.663Z,987.83
2017-02-28T02:23:14.683Z,987.81
2017-02-28T02:24:14.702Z,987.73
2017-02-28T02:25:14.725Z,987.69
2017-02-28T02:26:14.745Z,987.7
2017-02-28T02:27:14.765Z,987.75
2017-02-28T02:29:14.807Z,987.67
2017-02-28T02:30:14.828Z,987.58
2017-02-28T02:31:14.847Z,987.53
2017-02-28T02:32:14.868Z,987.5
2017-02-28T02:33:14.888Z,987.47
2017-02-28T02:34:14.910Z,987.46
2017-02-28T02:35:14.930Z,987.46
2017-02-28T02:36:14.949Z,987.39
2017-02-28T02:37:14.971Z,987.4
2017-02-28T02:38:14.991Z,987.42
2017-02-28T02:39:15.013Z,987.46
2017-02-28T02:40:15.033Z,987.51
2017-02-28T02:41:15.054Z,987.44
2017-02-28T02:42:15.073Z,987.41
2017-02-28T02:43:15.094Z,987.37
2017-02-28T02:45:15.136Z,987.3
2017-02-28T02:46:15.155Z,987.3
2017-02-28T02:47:15.177Z,987.26
2017-02-28T02:48:15.198Z,987.26
2017-02-28T02:49:15.217Z,987.19
2017-02-28T02:50:15.238Z,987.25
2017-02-28T02:51:15.259Z,987.22
2017-02-28T02:52:15.279Z,987.23
2017-02-28T02:53:15.300Z,987.28
2017-02-28T02:54:15.320Z,987.14
2017-02-28T02:55:15.341Z,987.2
2017-02-28T02:56:15.363Z,987.12
2017-02-28T02:57:15.382Z,987.11
2017-02-28T02:58:15.403Z,987.11
2017-02-28T02:59:15.424Z,987.14
2017-02-28T03:01:15.464Z,987.17
2017-02-28T03:02:15.485Z,987.25
2017-02-28T03:03:15.507Z,987.2
2017-02-28T03:04:15.526Z,987.19
2017-02-28T03:05:15.550Z,987.17
2017-02-28T03:06:15.567Z,987.2
2017-02-28T03:07:15.589Z,987.41
2017-02-28T03:08:15.608Z,987.43
2017-02-28T03:09:15.630Z,987.48
2017-02-28T03:10:15.649Z,987.51
2017-02-28T03:11:15.669Z,987.64
2017-02-28T03:12:15.691Z,987.59
2017-02-28T03:13:15.712Z,987.7
2017-02-28T03:14:15.732Z,987.76
2017-02-28T03:15:15.752Z,987.74
2017-02-28T03:17:15.794Z,987.67
2017-02-28T03:18:15.814Z,987.61
2017-02-28T03:19:15.834Z,987.61
2017-02-28T03:20:15.855Z,987.4
2017-02-28T03:21:15.876Z,987.51
2017-02-28T03:22:15.895Z,987.64
2017-02-28T03:23:15.916Z,987.66
2017-02-28T03:24:15.938Z,987.65
2017-02-28T03:25:15.958Z,987.8
2017-02-28T03:26:15.978Z,987.7
2017-02-28T03:27:15.998Z,987.82
2017-02-28T03:28:16.019Z,987.72
2017-02-28T03:29:16.040Z,987.72
2017-02-28T03:30:16.061Z,987.76
2017-02-28T03:32:16.102Z,987.75
2017-02-28T03:33:16.122Z,987.72
2017-02-28T03:34:16.143Z,987.65
2017-02-28T03:35:16.162Z,987.73
2017-02-28T03:36:16.183Z,987.75
2017-02-28T03:37:16.204Z,987.74
2017-02-28T03:38:16.225Z,987.62
2017-02-28T03:39:16.246Z,987.64
2017-02-28T03:40:16.266Z,987.56
2017-02-28T03:41:16.287Z,987.63
2017-02-28T03:42:16.307Z,987.49
2017-02-28T03:43:16.328Z,987.52
2017-02-28T03:44:16.348Z,987.46
2017-02-28T03:45:16.369Z,987.37
2017-02-28T03:46:16.389Z,987.46
2017-02-28T03:47:16.411Z,987.46
2017-02-28T03:48:16.431Z,987.32
2017-02-28T03:49:16.451Z,987.34
2017-02-28T03:50:16.472Z,987.41
2017-02-28T03:51:16.492Z,987.33
2017-02-28T03:52:16.513Z,987.39
2017-02-28T03:53:16.534Z,987.48
2017-02-28T03:54:16.554Z,987.39
2017-02-28T03:55:16.574Z,987.38
2017-02-28T03:56:16.595Z,987.43
2017-02-28T03:57:16.617Z,987.49
2017-02-28T03:58:16.637Z,987.5
2017-02-28T03:59:16.657Z,987.5
2017-02-28T04:00:16.679Z,987.47
2017-02-28T04:01:16.700Z,987.42
2017-02-28T04:02:16.719Z,987.43
2017-02-28T04:04:16.760Z,987.54
2017-02-28T04:05:16.782Z,987.53
2017-02-28T04:06:16.802Z,987.39
2017-02-28T04:07:16.823Z,987.42
2017-02-28T04:08:16.844Z,987.22
2017-02-28T04:09:16.863Z,987.12
2017-02-28T04:10:16.884Z,987.1
2017-02-28T04:11:16.905Z,987.17
2017-02-28T04:12:16.927Z,987.25
2017-02-28T04:13:16.946Z,987.24
2017-02-28T04:14:16.967Z,987.38
2017-02-28T04:15:16.988Z,987.4
2017-02-28T04:16:17.009Z,987.49
2017-02-28T04:17:17.029Z,987.49
2017-02-28T04:18:17.050Z,987.47
2017-02-28T04:20:17.092Z,987.43
2017-02-28T04:21:17.111Z,987.38
2017-02-28T04:22:17.133Z,987.29
2017-02-28T04:23:17.154Z,987.4
2017-02-28T04:24:17.173Z,987.27
2017-02-28T04:25:17.195Z,987.26
2017-02-28T04:26:17.216Z,987.15
2017-02-28T04:27:17.237Z,987.2
2017-02-28T04:28:17.257Z,987.19
2017-02-28T04:29:17.278Z,987.29
2017-02-28T04:30:17.298Z,987.21
2017-02-28T04:31:17.320Z,987.25
2017-02-28T04:32:17.339Z,987.25
2017-02-28T04:33:17.361Z,987.29
2017-02-28T04:34:17.382Z,987.24
2017-02-28T04:36:17.423Z,987.42
2017-02-28T04:37:17.444Z,987.32
2017-02-28T04:38:17.465Z,987.3
2017-02-28T04:39:17.485Z,987.32
2017-02-28T04:40:17.511Z,987.34
2017-02-28T04:41:17.529Z,987.36
2017-02-28T04:42:17.547Z,987.32
2017-02-28T04:43:17.567Z,987.4
2017-02-28T04:44:17.588Z,987.48
2017-02-28T04:45:17.614Z,987.47
2017-02-28T04:46:17.629Z,987.49
2017-02-28T04:47:17.651Z,987.54
2017-02-28T04:48:17.672Z,987.52
2017-02-28T04:49:17.692Z,987.51
2017-02-28T04:50:17.713Z,987.51
2017-02-28T04:52:17.755Z,987.52
2017-02-28T04:53:17.776Z,987.52
2017-02-28T04:54:17.796Z,987.69
2017-02-28T04:55:17.817Z,987.73
2017-02-28T04:56:17.838Z,987.85
2017-02-28T04:57:17.858Z,987.89
2017-02-28T04:58:17.879Z,987.99
2017-02-28T04:59:17.900Z,988.11
2017-02-28T05:00:17.921Z,988.1
2017-02-28T05:01:17.941Z,988.1
2017-02-28T05:02:17.961Z,988.06
2017-02-28T05:03:17.983Z,987.92
2017-02-28T05:04:18.005Z,987.84
2017-02-28T05:05:18.024Z,987.84
2017-02-28T05:07:18.067Z,987.85
2017-02-28T05:08:18.087Z,987.82
2017-02-28T05:09:18.107Z,987.82
2017-02-28T05:10:18.133Z,987.85
2017-02-28T05:11:18.150Z,987.84
2017-02-28T05:12:18.170Z,987.86
2017-02-28T05:13:18.191Z,987.7
2017-02-28T05:14:18.212Z,987.63
2017-02-28T05:15:18.232Z,987.74
2017-02-28T05:16:18.253Z,987.67
2017-02-28T05:17:18.274Z,987.81
2017-02-28T05:18:18.294Z,987.84
2017-02-28T05:19:18.315Z,987.86
2017-02-28T05:20:18.335Z,987.84
2017-02-28T05:21:18.357Z,987.82
2017-02-28T05:22:18.379Z,987.77
2017-02-28T05:23:18.398Z,987.73
2017-02-28T05:24:18.419Z,987.82
2017-02-28T05:25:18.440Z,987.8
2017-02-28T05:26:18.460Z,987.71
2017-02-28T05:27:18.481Z,987.7
2017-02-28T05:28:18.501Z,987.68
2017-02-28T05:29:18.523Z,987.7
2017-02-28T05:30:18.543Z,987.68
2017-02-28T05:31:18.564Z,987.73
2017-02-28T05:32:18.586Z,987.8
2017-02-28T05:33:18.606Z,987.73
2017-02-28T05:34:18.625Z,987.77
2017-02-28T05:35:18.646Z,987.72
2017-02-28T05:36:18.667Z,987.82
2017-02-28T05:37:18.687Z,987.88
2017-02-28T05:39:18.729Z,987.87
2017-02-28T05:40:18.751Z,987.85
2017-02-28T05:41:18.771Z,987.78
2017-02-28T05:42:18.791Z,987.71
2017-02-28T05:43:18.812Z,987.68
2017-02-28T05:44:18.834Z,987.63
2017-02-28T05:45:18.853Z,987.53
2017-02-28T05:46:18.874Z,987.58
2017-02-28T05:47:18.895Z,987.6
2017-02-28T05:48:18.915Z,987.65
2017-02-28T05:49:18.936Z,987.69
2017-02-28T05:50:18.958Z,987.63
2017-02-28T05:51:18.978Z,987.72
2017-02-28T05:52:18.999Z,987.71
2017-02-28T05:53:19.020Z,987.8
2017-02-28T05:55:19.062Z,987.72
2017-02-28T05:56:19.081Z,987.78
2017-02-28T05:57:19.103Z,987.7
2017-02-28T05:58:19.123Z,987.78
2017-02-28T05:59:19.143Z,987.75
2017-02-28T06:00:19.165Z,987.93
2017-02-28T06:01:19.204Z,988.01
2017-02-28T06:02:19.206Z,987.97
2017-02-28T06:03:19.244Z,987.96
2017-02-28T06:04:19.248Z,987.93
2017-02-28T06:05:19.288Z,987.91
2017-02-28T06:06:19.290Z,987.9
2017-02-28T06:07:19.334Z,987.96
2017-02-28T06:08:19.330Z,987.95
2017-02-28T06:09:19.364Z,987.96
2017-02-28T06:11:19.392Z,988.05
2017-02-28T06:12:19.413Z,987.98
2017-02-28T06:13:19.454Z,988
2017-02-28T06:14:19.454Z,988.06
2017-02-28T06:15:19.504Z,988.03
2017-02-28T06:16:19.497Z,988
2017-02-28T06:17:19.547Z,988.05
2017-02-28T06:18:19.538Z,988.08
2017-02-28T06:19:19.572Z,988.1
2017-02-28T06:20:19.579Z,988.17
2017-02-28T06:21:19.601Z,988.18
2017-02-28T06:22:19.620Z,988.1
2017-02-28T06:23:19.641Z,988.19
2017-02-28T06:24:19.662Z,988.21
2017-02-28T06:25:19.706Z,988.26
2017-02-28T06:27:19.743Z,988.28
2017-02-28T06:28:19.746Z,988.28
2017-02-28T06:29:19.771Z,988.29
2017-02-28T06:30:19.786Z,988.18
2017-02-28T06:31:19.827Z,988.14
2017-02-28T06:32:19.827Z,988.18
2017-02-28T06:33:19.866Z,988.12
2017-02-28T06:34:19.869Z,988.15
2017-02-28T06:35:19.909Z,988.09
2017-02-28T06:36:19.910Z,988.08
2017-02-28T06:37:19.948Z,988.21
2017-02-28T06:38:19.952Z,988.28
2017-02-28T06:39:19.982Z,988.35
2017-02-28T06:40:19.994Z,988.41
2017-02-28T06:42:20.042Z,988.4
2017-02-28T06:43:20.076Z,988.46
2017-02-28T06:44:20.085Z,988.42
2017-02-28T06:45:20.122Z,988.37
2017-02-28T06:46:20.121Z,988.38
2017-02-28T06:47:20.440Z,988.37
2017-02-28T06:48:20.161Z,988.33
2017-02-28T06:49:20.181Z,988.39
2017-02-28T06:50:20.209Z,988.36
2017-02-28T06:51:20.223Z,988.4
2017-02-28T06:52:20.248Z,988.39
2017-02-28T06:53:20.282Z,988.45
2017-02-28T06:54:20.284Z,988.6
2017-02-28T06:55:20.334Z,988.54
2017-02-28T06:56:20.328Z,988.51
2017-02-28T06:57:20.366Z,988.48
2017-02-28T06:58:20.367Z,988.53
2017-02-28T06:59:20.415Z,988.54
2017-02-28T07:00:20.410Z,988.56
2017-02-28T07:01:20.452Z,988.51
2017-02-28T07:02:20.451Z,988.48
2017-02-28T07:03:20.477Z,988.57
2017-02-28T07:04:20.492Z,988.52
2017-02-28T07:05:20.530Z,988.57
2017-02-28T07:06:20.533Z,988.52
2017-02-28T07:07:20.570Z,988.55
2017-02-28T07:08:20.575Z,988.57
2017-02-28T07:09:20.625Z,988.51
2017-02-28T07:10:20.616Z,988.68
2017-02-28T07:11:20.661Z,988.74
2017-02-28T07:12:20.657Z,988.72
2017-02-28T07:14:20.699Z,988.63
2017-02-28T07:15:20.722Z,988.76
2017-02-28T07:16:20.743Z,988.52
2017-02-28T07:17:20.761Z,988.63
2017-02-28T07:18:20.782Z,988.65
2017-02-28T07:19:20.825Z,988.61
2017-02-28T07:20:20.823Z,988.65
2017-02-28T07:21:20.862Z,988.62
2017-02-28T07:22:20.863Z,988.63
2017-02-28T07:23:20.889Z,988.65
2017-02-28T07:24:20.905Z,988.73
2017-02-28T07:25:20.946Z,988.73
2017-02-28T07:26:20.948Z,988.72
2017-02-28T07:27:20.995Z,988.71
2017-02-28T07:28:20.988Z,988.75
2017-02-28T07:30:21.032Z,988.69
2017-02-28T07:31:21.050Z,988.67
2017-02-28T07:32:21.071Z,988.69
2017-02-28T07:33:21.092Z,988.67
2017-02-28T07:34:21.111Z,988.67
2017-02-28T07:35:21.132Z,988.65
2017-02-28T07:36:21.153Z,988.79
2017-02-28T07:37:21.174Z,988.79
2017-02-28T07:38:21.193Z,988.82
2017-02-28T07:39:21.215Z,988.89
2017-02-28T07:40:21.235Z,988.89
2017-02-28T07:41:21.257Z,988.86
2017-02-28T07:42:21.276Z,988.91
2017-02-28T07:43:21.297Z,988.89
2017-02-28T07:44:21.318Z,988.95
2017-02-28T07:46:21.358Z,989.01
2017-02-28T07:47:21.379Z,989.15
2017-02-28T07:48:21.400Z,988.87
2017-02-28T07:49:21.420Z,989.04
2017-02-28T07:50:21.441Z,988.97
2017-02-28T07:51:21.461Z,989.05
2017-02-28T07:52:21.486Z,989.05
2017-02-28T07:53:21.502Z,989.01
2017-02-28T07:54:21.524Z,989.08
2017-02-28T07:55:21.544Z,989.15
2017-02-28T07:56:21.564Z,989.08
2017-02-28T07:57:21.885Z,989.19
2017-02-28T07:58:21.605Z,989.28
2017-02-28T07:59:21.626Z,989.27
2017-02-28T08:00:21.646Z,989.31
2017-02-28T08:02:21.687Z,989.22
2017-02-28T08:03:21.708Z,989.13
2017-02-28T08:04:21.728Z,989.16
2017-02-28T08:05:21.748Z,989.17
2017-02-28T08:06:21.769Z,989.29
2017-02-28T08:07:21.790Z,989.16
2017-02-28T08:08:21.809Z,989.09
2017-02-28T08:09:21.831Z,989.2
2017-02-28T08:10:21.852Z,989.2
2017-02-28T08:11:21.871Z,989.36
2017-02-28T08:12:21.892Z,989.3
2017-02-28T08:13:21.913Z,989.26
2017-02-28T08:14:21.934Z,989.41
2017-02-28T08:15:21.954Z,989.31
2017-02-28T08:17:21.995Z,989.28
2017-02-28T08:18:22.015Z,989.33
2017-02-28T08:19:22.036Z,989.36
2017-02-28T08:20:22.057Z,989.29
2017-02-28T08:21:22.081Z,989.35
2017-02-28T08:22:22.098Z,989.32
2017-02-28T08:23:22.118Z,989.39
2017-02-28T08:24:22.139Z,989.4
2017-02-28T08:25:22.159Z,989.36
2017-02-28T08:26:22.180Z,989.38
2017-02-28T08:27:22.200Z,989.4
2017-02-28T08:28:22.221Z,989.39
2017-02-28T08:29:22.241Z,989.36
2017-02-28T08:30:22.262Z,989.3
2017-02-28T08:31:22.284Z,989.5
2017-02-28T08:32:22.303Z,989.4
2017-02-28T08:33:22.325Z,989.38
2017-02-28T08:34:22.344Z,989.25
2017-02-28T08:35:22.365Z,989.37
2017-02-28T08:36:22.385Z,989.43
2017-02-28T08:37:22.407Z,989.36
2017-02-28T08:38:22.428Z,989.42
2017-02-28T08:39:22.447Z,989.41
2017-02-28T08:40:22.467Z,989.43
2017-02-28T08:41:22.487Z,989.48
2017-02-28T08:42:22.509Z,989.43
2017-02-28T08:43:22.530Z,989.38
2017-02-28T08:44:22.550Z,989.38
2017-02-28T08:45:22.571Z,989.49
2017-02-28T08:46:22.592Z,989.44
2017-02-28T08:47:22.613Z,989.46
2017-02-28T08:49:22.654Z,989.41
2017-02-28T08:50:22.675Z,989.43
2017-02-28T08:51:22.694Z,989.36
2017-02-28T08:52:22.715Z,989.33
2017-02-28T08:53:22.737Z,989.45
2017-02-28T08:54:22.757Z,989.55
2017-02-28T08:55:22.777Z,989.45
2017-02-28T08:56:22.798Z,989.46
2017-02-28T08:57:22.819Z,989.61
2017-02-28T08:58:22.839Z,989.45
2017-02-28T08:59:22.860Z,989.52
2017-02-28T09:00:22.881Z,989.3
2017-02-28T09:01:22.902Z,989.3
2017-02-28T09:02:22.922Z,989.39
2017-02-28T09:03:22.943Z,989.38
2017-02-28T09:05:22.985Z,989.38
2017-02-28T09:06:23.004Z,989.5
2017-02-28T09:07:23.025Z,989.52
2017-02-28T09:08:23.049Z,989.45
2017-02-28T09:09:23.072Z,989.53
2017-02-28T09:10:23.088Z,989.63
2017-02-28T09:11:23.110Z,989.69
2017-02-28T09:12:23.131Z,989.67
2017-02-28T09:13:23.151Z,989.67
2017-02-28T09:14:23.172Z,989.71
2017-02-28T09:15:23.194Z,989.78
2017-02-28T09:16:23.215Z,989.65
2017-02-28T09:17:23.234Z,989.65
2017-02-28T09:18:23.256Z,989.6
2017-02-28T09:19:23.277Z,989.54
2017-02-28T09:21:23.318Z,989.52
2017-02-28T09:22:23.340Z,989.43
2017-02-28T09:23:23.361Z,989.5
2017-02-28T09:24:23.380Z,989.37
2017-02-28T09:25:23.403Z,989.48
2017-02-28T09:26:23.424Z,989.45
2017-02-28T09:27:23.445Z,989.5
2017-02-28T09:28:23.466Z,989.45
2017-02-28T09:29:23.487Z,989.44
2017-02-28T09:30:23.508Z,989.52
2017-02-28T09:31:23.529Z,989.6
2017-02-28T09:32:23.550Z,989.48
2017-02-28T09:33:23.571Z,989.42
2017-02-28T09:34:23.592Z,989.58
2017-02-28T09:35:23.613Z,989.61
2017-02-28T09:37:23.656Z,989.48
2017-02-28T09:38:23.677Z,989.59
2017-02-28T09:39:23.697Z,989.52
2017-02-28T09:40:23.719Z,989.42
2017-02-28T09:41:23.741Z,989.52
2017-02-28T09:42:23.761Z,989.56
2017-02-28T09:43:23.781Z,989.69
2017-02-28T09:44:23.803Z,989.71
2017-02-28T09:45:23.824Z,989.65
2017-02-28T09:46:23.845Z,989.61
2017-02-28T09:47:23.866Z,989.62
2017-02-28T09:48:23.887Z,989.6
2017-02-28T09:49:23.909Z,989.48
2017-02-28T09:50:23.931Z,989.48
2017-02-28T09:52:23.974Z,989.55
2017-02-28T09:53:23.995Z,989.67
2017-02-28T09:54:24.016Z,989.63
2017-02-28T09:55:24.037Z,989.61
2017-02-28T09:56:24.059Z,989.58
2017-02-28T09:57:24.079Z,989.66
2017-02-28T09:58:24.102Z,989.56
2017-02-28T09:59:24.123Z,989.49
2017-02-28T10:00:24.143Z,989.38
2017-02-28T10:01:24.165Z,989.47
2017-02-28T10:02:24.186Z,989.52
2017-02-28T10:03:24.208Z,989.53
2017-02-28T10:04:24.228Z,989.41
2017-02-28T10:05:24.249Z,989.59
2017-02-28T10:06:24.271Z,989.6
2017-02-28T10:07:24.293Z,989.59
2017-02-28T10:08:24.312Z,989.55
2017-02-28T10:09:24.334Z,989.5
2017-02-28T10:10:24.357Z,989.58
2017-02-28T10:11:24.377Z,989.64
2017-02-28T10:12:24.399Z,989.57
2017-02-28T10:13:24.420Z,989.64
2017-02-28T10:14:24.444Z,989.61
2017-02-28T10:15:24.462Z,989.6
2017-02-28T10:16:24.484Z,989.51
2017-02-28T10:17:24.505Z,989.64
2017-02-28T10:18:24.527Z,989.52
2017-02-28T10:19:24.548Z,989.54
2017-02-28T10:20:24.569Z,989.56
2017-02-28T10:21:24.591Z,989.61
2017-02-28T10:22:24.613Z,989.52
2017-02-28T10:24:24.655Z,989.56
2017-02-28T10:25:24.676Z,989.48
2017-02-28T10:26:24.697Z,989.69
2017-02-28T10:27:24.718Z,989.54
2017-02-28T10:28:24.740Z,989.52
2017-02-28T10:29:24.762Z,989.63
2017-02-28T10:30:24.782Z,989.61
2017-02-28T10:31:24.804Z,989.59
2017-02-28T10:32:24.826Z,989.72
2017-02-28T10:33:24.846Z,989.72
2017-02-28T10:34:24.867Z,989.77
2017-02-28T10:35:24.889Z,989.74
2017-02-28T10:36:24.911Z,989.8
2017-02-28T10:37:24.931Z,989.66
2017-02-28T10:38:24.953Z,989.66
2017-02-28T10:40:24.997Z,989.74
2017-02-28T10:41:25.017Z,989.72
2017-02-28T10:42:25.039Z,989.7
2017-02-28T10:43:25.060Z,989.66
2017-02-28T10:44:25.081Z,989.72
2017-02-28T10:45:25.102Z,989.77
2017-02-28T10:46:25.124Z,989.8
2017-02-28T10:47:25.146Z,989.64
2017-02-28T10:48:25.167Z,989.75
2017-02-28T10:49:25.188Z,989.65
2017-02-28T10:50:25.210Z,989.72
2017-02-28T10:51:25.231Z,989.69
2017-02-28T10:52:25.252Z,989.76
2017-02-28T10:53:25.274Z,989.81
2017-02-28T10:54:25.295Z,989.87
2017-02-28T10:56:25.337Z,989.63
2017-02-28T10:57:25.358Z,989.68
2017-02-28T10:58:25.380Z,989.65
2017-02-28T10:59:25.400Z,989.63
2017-02-28T11:00:25.422Z,989.61
2017-02-28T11:01:25.443Z,989.58
2017-02-28T11:02:25.464Z,989.58
2017-02-28T11:03:25.485Z,989.6
2017-02-28T11:04:25.508Z,989.53
2017-02-28T11:05:25.527Z,989.56
2017-02-28T11:06:25.548Z,989.57
2017-02-28T11:07:25.569Z,989.59
2017-02-28T11:08:25.590Z,989.59
2017-02-28T11:09:25.610Z,989.62
2017-02-28T11:10:25.631Z,989.57
2017-02-28T11:12:25.674Z,989.56
2017-02-28T11:13:25.696Z,989.63
2017-02-28T11:14:25.716Z,989.65
2017-02-28T11:15:25.738Z,989.59
2017-02-28T11:16:25.760Z,989.59
2017-02-28T11:17:25.780Z,989.54
2017-02-28T11:18:25.801Z,989.65
2017-02-28T11:19:25.824Z,989.63
2017-02-28T11:20:25.845Z,989.76
2017-02-28T11:21:25.865Z,989.65
2017-02-28T11:22:25.889Z,989.62
2017-02-28T11:23:25.908Z,989.54
2017-02-28T11:24:25.930Z,989.51
2017-02-28T11:25:25.953Z,989.49
2017-02-28T11:27:25.996Z,989.5
2017-02-28T11:28:26.017Z,989.46
2017-02-28T11:29:26.039Z,989.46
2017-02-28T11:30:26.061Z,989.37
2017-02-28T11:31:26.083Z,989.31
2017-02-28T11:32:26.104Z,989.32
2017-02-28T11:33:26.126Z,989.34
2017-02-28T11:34:26.148Z,989.35
2017-02-28T11:35:26.168Z,989.32
2017-02-28T11:36:26.191Z,989.34
2017-02-28T11:37:26.213Z,989.34
2017-02-28T11:38:26.235Z,989.38
2017-02-28T11:39:26.256Z,989.32
2017-02-28T11:40:26.279Z,989.29
2017-02-28T11:41:26.301Z,989.32
2017-02-28T11:42:26.323Z,989.3
2017-02-28T11:43:26.344Z,989.35
2017-02-28T11:44:26.366Z,989.21
2017-02-28T11:45:26.388Z,989.3
2017-02-28T11:46:26.410Z,989.28
2017-02-28T11:47:26.432Z,989.32
2017-02-28T11:48:26.454Z,989.17
2017-02-28T11:49:26.777Z,989.17
2017-02-28T11:50:26.497Z,989.19
2017-02-28T11:51:26.520Z,989.18
2017-02-28T11:52:26.542Z,989.19
2017-02-28T11:53:26.565Z,989.22
2017-02-28T11:54:26.586Z,989.17
2017-02-28T11:55:26.608Z,989.28
2017-02-28T11:56:26.631Z,989.16
2017-02-28T11:57:26.653Z,989.22
2017-02-28T11:59:26.698Z,989.05
2017-02-28T12:00:26.719Z,989.07
2017-02-28T12:01:26.741Z,989.04
2017-02-28T12:02:26.764Z,989.01
2017-02-28T12:03:26.787Z,989.01
2017-02-28T12:04:26.808Z,989.01
2017-02-28T12:05:26.829Z,988.93
2017-02-28T12:06:26.852Z,989.07
2017-02-28T12:07:26.875Z,988.9
2017-02-28T12:08:26.896Z,989.05
2017-02-28T12:09:26.918Z,988.91
2017-02-28T12:10:26.940Z,988.99
2017-02-28T12:11:26.963Z,988.98
2017-02-28T12:12:26.983Z,988.98
2017-02-28T12:13:27.005Z,988.81
2017-02-28T12:15:27.051Z,988.89
2017-02-28T12:16:27.072Z,988.94
2017-02-28T12:17:27.095Z,989.01
2017-02-28T12:18:27.117Z,988.83
2017-02-28T12:19:27.138Z,988.84
2017-02-28T12:20:27.161Z,988.8
2017-02-28T12:21:27.183Z,988.84
2017-02-28T12:22:27.205Z,988.92
2017-02-28T12:23:27.226Z,988.69
2017-02-28T12:24:27.248Z,988.72
2017-02-28T12:25:27.270Z,988.72
2017-02-28T12:26:27.291Z,988.78
2017-02-28T12:27:27.313Z,988.78
2017-02-28T12:28:27.335Z,988.78
2017-02-28T12:29:27.358Z,988.69
2017-02-28T12:31:27.400Z,988.78
2017-02-28T12:32:27.423Z,988.77
2017-02-28T12:33:27.445Z,988.66
2017-02-28T12:34:27.466Z,988.7
2017-02-28T12:35:27.488Z,988.73
2017-02-28T12:36:27.510Z,988.66
2017-02-28T12:37:27.531Z,988.81
2017-02-28T12:38:27.554Z,988.82
2017-02-28T12:39:27.576Z,988.73
2017-02-28T12:40:27.599Z,988.7
2017-02-28T12:41:27.620Z,988.78
2017-02-28T12:42:27.642Z,988.77
2017-02-28T12:43:27.664Z,988.86
2017-02-28T12:44:27.687Z,988.81
2017-02-28T12:45:27.708Z,988.79
2017-02-28T12:47:27.753Z,988.74
2017-02-28T12:48:27.775Z,988.83
2017-02-28T12:49:27.796Z,988.85
2017-02-28T12:50:27.818Z,988.93
2017-02-28T12:51:27.841Z,989
2017-02-28T12:52:27.862Z,988.81
2017-02-28T12:53:27.885Z,988.94
2017-02-28T12:54:27.907Z,988.94
2017-02-28T12:55:27.930Z,988.7
2017-02-28T12:56:27.952Z,989.08
2017-02-28T12:57:27.974Z,988.94
2017-02-28T12:58:27.997Z,988.98
2017-02-28T12:59:28.019Z,988.76
2017-02-28T13:00:28.042Z,988.78
2017-02-28T13:02:28.087Z,988.85
2017-02-28T13:03:28.108Z,988.79
2017-02-28T13:04:28.131Z,988.9
2017-02-28T13:05:28.153Z,988.91
2017-02-28T13:06:28.175Z,988.81
2017-02-28T13:07:28.197Z,988.85
2017-02-28T13:08:28.219Z,988.75
2017-02-28T13:09:28.242Z,988.86
2017-02-28T13:10:28.263Z,988.79
2017-02-28T13:11:28.286Z,988.74
2017-02-28T13:12:28.308Z,988.67
2017-02-28T13:13:28.330Z,988.65